W45 ENTC-EFKT
Flight info
| Callsign | W45 |
|---|---|
| Flight time | 0h 42m |
| Altitude | 39000 |
| Route | MOKAX DCT RIXEM DCT DOPUD DCT EXUTI |
| Aircraft | LJ35/M-SGHRWXY/SB1 |
Departure
| Time | 2026-04-26 18:54 |
|---|---|
| Airport | Tromsø Airport (ENTC) |
Arrival
| Time | 2026-04-26 19:37 |
|---|---|
| Airport | Kittilä International Airport (EFKT) |
| Time | Latitude | Longitude | Altitude | Speed | Heading |
|---|---|---|---|---|---|
| 2026-04-26 18:43 | 69.68128 | 18.90938 | 28 ft | 0 kts | 282° |
| 2026-04-26 18:51 | 69.68130 | 18.90929 | 28 ft | 2 kts | 323° |
| 2026-04-26 18:52 | 69.68138 | 18.90955 | 28 ft | 5 kts | 115° |
| 2026-04-26 18:52 | 69.68112 | 18.91129 | 29 ft | 13 kts | 100° |
| 2026-04-26 18:52 | 69.68046 | 18.91311 | 29 ft | 20 kts | 194° |
| 2026-04-26 18:52 | 69.67903 | 18.91218 | 29 ft | 23 kts | 192° |
| 2026-04-26 18:53 | 69.67742 | 18.91110 | 29 ft | 25 kts | 195° |
| 2026-04-26 18:53 | 69.67632 | 18.91162 | 30 ft | 17 kts | 105° |
| 2026-04-26 18:53 | 69.67659 | 18.91443 | 35 ft | 17 kts | 13° |
| 2026-04-26 18:53 | 69.67673 | 18.91451 | 35 ft | 0 kts | 14° |
| 2026-04-26 18:54 | 69.67915 | 18.91615 | 33 ft | 100 kts | 13° |
| 2026-04-26 18:54 | 69.68935 | 18.92376 | 633 ft | 172 kts | 11° |
| 2026-04-26 18:54 | 69.70094 | 18.93396 | 2571 ft | 175 kts | 13° |
| 2026-04-26 18:54 | 69.71172 | 18.94316 | 4565 ft | 179 kts | 12° |
| 2026-04-26 18:55 | 69.72615 | 18.95343 | 5680 ft | 233 kts | 10° |
| 2026-04-26 18:55 | 69.74037 | 18.96404 | 8424 ft | 226 kts | 18° |
| 2026-04-26 18:55 | 69.75500 | 18.99204 | 9787 ft | 270 kts | 31° |
| 2026-04-26 18:55 | 69.77129 | 19.02584 | 11351 ft | 298 kts | 36° |
| 2026-04-26 18:56 | 69.78367 | 19.07606 | 12892 ft | 327 kts | 72° |
| 2026-04-26 18:56 | 69.77984 | 19.14460 | 13240 ft | 387 kts | 121° |
| 2026-04-26 18:56 | 69.76293 | 19.19998 | 15735 ft | 327 kts | 134° |
| 2026-04-26 18:56 | 69.74714 | 19.24456 | 17586 ft | 329 kts | 137° |
| 2026-04-26 18:57 | 69.72879 | 19.28631 | 18220 ft | 339 kts | 149° |
| 2026-04-26 18:57 | 69.71418 | 19.30086 | 18819 ft | 338 kts | 173° |
| 2026-04-26 18:57 | 69.68349 | 19.28410 | 19844 ft | 331 kts | 205° |
| 2026-04-26 18:57 | 69.66389 | 19.25641 | 21701 ft | 300 kts | 207° |
| 2026-04-26 18:58 | 69.64483 | 19.23375 | 22895 ft | 300 kts | 201° |
| 2026-04-26 18:58 | 69.62406 | 19.21511 | 23189 ft | 324 kts | 196° |
| 2026-04-26 18:58 | 69.60199 | 19.20024 | 23781 ft | 332 kts | 192° |
| 2026-04-26 18:58 | 69.57954 | 19.19001 | 24741 ft | 328 kts | 188° |
| 2026-04-26 18:59 | 69.55617 | 19.18512 | 25021 ft | 346 kts | 180° |
| 2026-04-26 18:59 | 69.53247 | 19.19575 | 25859 ft | 342 kts | 163° |
| 2026-04-26 18:59 | 69.51131 | 19.22318 | 27049 ft | 329 kts | 148° |
| 2026-04-26 18:59 | 69.49393 | 19.26511 | 27800 ft | 330 kts | 131° |
| 2026-04-26 19:00 | 69.47856 | 19.31569 | 28075 ft | 346 kts | 127° |
| 2026-04-26 19:00 | 69.46285 | 19.36887 | 28511 ft | 354 kts | 130° |
| 2026-04-26 19:00 | 69.44626 | 19.42044 | 29287 ft | 352 kts | 133° |
| 2026-04-26 19:00 | 69.42943 | 19.47151 | 29894 ft | 356 kts | 132° |
| 2026-04-26 19:01 | 69.41167 | 19.52202 | 30181 ft | 367 kts | 137° |
| 2026-04-26 19:01 | 69.39309 | 19.57307 | 30372 ft | 378 kts | 133° |
| 2026-04-26 19:01 | 69.37509 | 19.62771 | 30833 ft | 378 kts | 129° |
| 2026-04-26 19:01 | 69.35786 | 19.68326 | 31497 ft | 372 kts | 131° |
| 2026-04-26 19:02 | 69.34035 | 19.73693 | 32065 ft | 371 kts | 131° |
| 2026-04-26 19:02 | 69.32284 | 19.79139 | 32368 ft | 378 kts | 130° |
| 2026-04-26 19:02 | 69.30546 | 19.84838 | 32545 ft | 387 kts | 129° |
| 2026-04-26 19:02 | 69.29375 | 19.88663 | 32742 ft | 389 kts | 129° |
| 2026-04-26 19:03 | 69.27045 | 19.96424 | 33455 ft | 385 kts | 127° |
| 2026-04-26 19:03 | 69.25362 | 20.02280 | 33917 ft | 384 kts | 127° |
| 2026-04-26 19:03 | 69.23713 | 20.08289 | 34096 ft | 391 kts | 125° |
| 2026-04-26 19:03 | 69.22061 | 20.14436 | 34298 ft | 396 kts | 124° |
| 2026-04-26 19:04 | 69.20465 | 20.20734 | 34662 ft | 394 kts | 122° |
| 2026-04-26 19:04 | 69.18814 | 20.26870 | 35062 ft | 392 kts | 127° |
| 2026-04-26 19:04 | 69.17058 | 20.32736 | 35362 ft | 394 kts | 131° |
| 2026-04-26 19:04 | 69.15101 | 20.38209 | 35502 ft | 401 kts | 136° |
| 2026-04-26 19:05 | 69.10982 | 20.48838 | 35707 ft | 410 kts | 130° |
| 2026-04-26 19:05 | 69.09100 | 20.54838 | 35979 ft | 409 kts | 129° |
| 2026-04-26 19:05 | 69.07307 | 20.60950 | 36432 ft | 403 kts | 126° |
| 2026-04-26 19:06 | 69.05639 | 20.67200 | 36798 ft | 400 kts | 127° |
| 2026-04-26 19:06 | 69.03807 | 20.73151 | 36727 ft | 411 kts | 130° |
| 2026-04-26 19:06 | 69.01905 | 20.79114 | 37243 ft | 392 kts | 129° |
| 2026-04-26 19:06 | 69.00169 | 20.84749 | 37959 ft | 388 kts | 129° |
| 2026-04-26 19:07 | 68.98393 | 20.90518 | 38032 ft | 393 kts | 129° |
| 2026-04-26 19:07 | 68.96655 | 20.96330 | 38363 ft | 392 kts | 128° |
| 2026-04-26 19:07 | 68.94936 | 21.02293 | 38585 ft | 392 kts | 126° |
| 2026-04-26 19:07 | 68.93308 | 21.08219 | 38907 ft | 390 kts | 129° |
| 2026-04-26 19:08 | 68.91393 | 21.13749 | 38789 ft | 402 kts | 134° |
| 2026-04-26 19:08 | 68.89378 | 21.19135 | 39003 ft | 401 kts | 135° |
| 2026-04-26 19:08 | 68.87370 | 21.24544 | 39005 ft | 407 kts | 135° |
| 2026-04-26 19:09 | 68.83294 | 21.35726 | 39196 ft | 411 kts | 133° |
| 2026-04-26 19:09 | 68.81265 | 21.41516 | 39171 ft | 427 kts | 133° |
| 2026-04-26 19:09 | 68.79197 | 21.47490 | 39452 ft | 430 kts | 133° |
| 2026-04-26 19:09 | 68.77092 | 21.53493 | 39399 ft | 444 kts | 133° |
| 2026-04-26 19:10 | 68.74921 | 21.59599 | 39454 ft | 447 kts | 134° |
| 2026-04-26 19:10 | 68.72715 | 21.65635 | 39683 ft | 445 kts | 134° |
| 2026-04-26 19:10 | 68.70500 | 21.71782 | 39257 ft | 462 kts | 133° |
| 2026-04-26 19:10 | 68.68240 | 21.78196 | 39010 ft | 471 kts | 133° |
| 2026-04-26 19:11 | 68.65913 | 21.84707 | 38564 ft | 483 kts | 134° |
| 2026-04-26 19:11 | 68.63572 | 21.91244 | 37903 ft | 474 kts | 134° |
| 2026-04-26 19:11 | 68.61341 | 21.97522 | 38039 ft | 448 kts | 133° |
| 2026-04-26 19:11 | 68.59227 | 22.03551 | 37834 ft | 434 kts | 133° |
| 2026-04-26 19:12 | 68.57142 | 22.09555 | 37159 ft | 433 kts | 132° |
| 2026-04-26 19:12 | 68.55149 | 22.15373 | 37098 ft | 417 kts | 131° |
| 2026-04-26 19:12 | 68.53200 | 22.21126 | 36802 ft | 410 kts | 131° |
| 2026-04-26 19:12 | 68.51275 | 22.26869 | 36229 ft | 411 kts | 131° |
| 2026-04-26 19:13 | 68.49355 | 22.32616 | 35794 ft | 408 kts | 131° |
| 2026-04-26 19:13 | 68.47465 | 22.38298 | 35504 ft | 402 kts | 130° |
| 2026-04-26 19:13 | 68.45597 | 22.43905 | 35120 ft | 399 kts | 130° |
| 2026-04-26 19:13 | 68.43730 | 22.49501 | 34644 ft | 400 kts | 130° |
| 2026-04-26 19:14 | 68.41867 | 22.55080 | 34288 ft | 396 kts | 130° |
| 2026-04-26 19:14 | 68.40033 | 22.60593 | 34099 ft | 388 kts | 130° |
| 2026-04-26 19:14 | 68.38249 | 22.65989 | 33897 ft | 381 kts | 130° |
| 2026-04-26 19:14 | 68.37085 | 22.69533 | 33660 ft | 379 kts | 130° |
| 2026-04-26 19:15 | 68.34708 | 22.76598 | 33027 ft | 380 kts | 131° |
| 2026-04-26 19:15 | 68.32904 | 22.81820 | 32601 ft | 379 kts | 131° |
| 2026-04-26 19:15 | 68.31063 | 22.86890 | 32257 ft | 377 kts | 134° |
| 2026-04-26 19:15 | 68.29197 | 22.91795 | 31977 ft | 372 kts | 136° |
| 2026-04-26 19:16 | 68.27278 | 22.96449 | 31684 ft | 369 kts | 137° |
| 2026-04-26 19:16 | 68.25381 | 23.00934 | 31433 ft | 365 kts | 137° |
| 2026-04-26 19:16 | 68.23466 | 23.05509 | 31160 ft | 362 kts | 137° |
| 2026-04-26 19:16 | 68.21576 | 23.09825 | 30846 ft | 361 kts | 139° |
| 2026-04-26 19:17 | 68.19624 | 23.14133 | 30376 ft | 365 kts | 140° |
| 2026-04-26 19:17 | 68.17686 | 23.18502 | 30126 ft | 361 kts | 136° |
| 2026-04-26 19:17 | 68.15929 | 23.23236 | 29912 ft | 355 kts | 130° |
| 2026-04-26 19:17 | 68.14403 | 23.28374 | 29614 ft | 349 kts | 121° |
| 2026-04-26 19:18 | 68.13344 | 23.34215 | 28933 ft | 350 kts | 101° |
| 2026-04-26 19:18 | 68.13140 | 23.40772 | 27948 ft | 358 kts | 87° |
| 2026-04-26 19:18 | 68.13124 | 23.47425 | 27387 ft | 356 kts | 87° |
| 2026-04-26 19:18 | 68.13085 | 23.54074 | 26606 ft | 358 kts | 89° |
| 2026-04-26 19:19 | 68.12946 | 23.60809 | 25724 ft | 364 kts | 91° |
| 2026-04-26 19:19 | 68.12734 | 23.67549 | 25077 ft | 361 kts | 92° |
| 2026-04-26 19:19 | 68.12536 | 23.74200 | 24560 ft | 354 kts | 91° |
| 2026-04-26 19:19 | 68.12356 | 23.80723 | 24113 ft | 347 kts | 91° |
| 2026-04-26 19:20 | 68.12161 | 23.87124 | 23621 ft | 343 kts | 92° |
| 2026-04-26 19:20 | 68.12031 | 23.91349 | 22982 ft | 346 kts | 92° |
| 2026-04-26 19:20 | 68.11744 | 23.99980 | 21985 ft | 345 kts | 92° |
| 2026-04-26 19:20 | 68.11525 | 24.06484 | 20153 ft | 370 kts | 93° |
| 2026-04-26 19:21 | 68.11294 | 24.13352 | 19078 ft | 372 kts | 92° |
| 2026-04-26 19:21 | 68.11000 | 24.20195 | 18399 ft | 365 kts | 97° |
| 2026-04-26 19:21 | 68.10306 | 24.26631 | 17875 ft | 356 kts | 111° |
| 2026-04-26 19:21 | 68.08928 | 24.32076 | 17018 ft | 356 kts | 132° |
| 2026-04-26 19:22 | 68.06994 | 24.36246 | 16063 ft | 359 kts | 147° |
| 2026-04-26 19:22 | 68.04791 | 24.39231 | 15496 ft | 346 kts | 157° |
| 2026-04-26 19:22 | 68.02591 | 24.41257 | 14948 ft | 325 kts | 165° |
| 2026-04-26 19:22 | 68.00457 | 24.42806 | 14332 ft | 312 kts | 166° |
| 2026-04-26 19:23 | 67.98416 | 24.44190 | 13726 ft | 302 kts | 167° |
| 2026-04-26 19:23 | 67.96399 | 24.45450 | 13072 ft | 293 kts | 168° |
| 2026-04-26 19:23 | 67.94452 | 24.46554 | 12531 ft | 282 kts | 169° |
| 2026-04-26 19:23 | 67.92539 | 24.47542 | 11935 ft | 276 kts | 170° |
| 2026-04-26 19:24 | 67.90678 | 24.48459 | 11487 ft | 267 kts | 171° |
| 2026-04-26 19:24 | 67.88866 | 24.49312 | 10940 ft | 263 kts | 172° |
| 2026-04-26 19:24 | 67.85224 | 24.51127 | 9539 ft | 266 kts | 167° |
| 2026-04-26 19:25 | 67.83463 | 24.52428 | 9053 ft | 259 kts | 164° |
| 2026-04-26 19:25 | 67.82881 | 24.52899 | 8865 ft | 258 kts | 163° |
| 2026-04-26 19:25 | 67.80107 | 24.55088 | 8284 ft | 242 kts | 165° |
| 2026-04-26 19:25 | 67.78482 | 24.56222 | 7709 ft | 244 kts | 167° |
| 2026-04-26 19:26 | 67.76809 | 24.57246 | 7136 ft | 247 kts | 168° |
| 2026-04-26 19:26 | 67.75151 | 24.58148 | 6741 ft | 241 kts | 169° |
| 2026-04-26 19:26 | 67.73508 | 24.58987 | 6308 ft | 238 kts | 170° |
| 2026-04-26 19:26 | 67.71894 | 24.59798 | 5895 ft | 235 kts | 170° |
| 2026-04-26 19:27 | 67.70295 | 24.60590 | 5492 ft | 232 kts | 170° |
| 2026-04-26 19:27 | 67.68726 | 24.61403 | 5129 ft | 228 kts | 169° |
| 2026-04-26 19:27 | 67.67188 | 24.62313 | 4786 ft | 225 kts | 167° |
| 2026-04-26 19:27 | 67.65710 | 24.63315 | 4610 ft | 214 kts | 164° |
| 2026-04-26 19:28 | 67.64284 | 24.64339 | 4237 ft | 215 kts | 165° |
| 2026-04-26 19:28 | 67.62870 | 24.65373 | 4125 ft | 204 kts | 164° |
| 2026-04-26 19:28 | 67.61509 | 24.66410 | 3850 ft | 204 kts | 163° |
| 2026-04-26 19:28 | 67.60185 | 24.67479 | 3766 ft | 193 kts | 162° |
| 2026-04-26 19:29 | 67.58939 | 24.68514 | 3683 ft | 183 kts | 162° |
| 2026-04-26 19:29 | 67.57761 | 24.69503 | 3631 ft | 173 kts | 161° |
| 2026-04-26 19:29 | 67.56643 | 24.70487 | 3492 ft | 171 kts | 161° |
| 2026-04-26 19:29 | 67.55403 | 24.71533 | 3506 ft | 205 kts | 163° |
| 2026-04-26 19:30 | 67.54045 | 24.72585 | 3507 ft | 203 kts | 163° |
| 2026-04-26 19:30 | 67.52696 | 24.73657 | 3454 ft | 201 kts | 160° |
| 2026-04-26 19:30 | 67.51479 | 24.75282 | 3529 ft | 197 kts | 140° |
| 2026-04-26 19:30 | 67.50823 | 24.76939 | 3497 ft | 201 kts | 126° |
| 2026-04-26 19:31 | 67.50024 | 24.81271 | 3490 ft | 200 kts | 98° |
| 2026-04-26 19:31 | 67.49867 | 24.84920 | 3413 ft | 202 kts | 82° |
| 2026-04-26 19:31 | 67.50189 | 24.88316 | 3615 ft | 180 kts | 57° |
| 2026-04-26 19:31 | 67.50840 | 24.91018 | 3595 ft | 172 kts | 45° |
| 2026-04-26 19:32 | 67.51741 | 24.93040 | 3442 ft | 169 kts | 26° |
| 2026-04-26 19:32 | 67.52774 | 24.94350 | 3438 ft | 159 kts | 18° |
| 2026-04-26 19:32 | 67.53804 | 24.95058 | 3389 ft | 153 kts | 4° |
| 2026-04-26 19:32 | 67.54881 | 24.94824 | 3277 ft | 160 kts | 346° |
| 2026-04-26 19:33 | 67.55933 | 24.94106 | 3182 ft | 143 kts | 344° |
| 2026-04-26 19:33 | 67.56835 | 24.93452 | 2941 ft | 130 kts | 344° |
| 2026-04-26 19:33 | 67.57713 | 24.92807 | 2785 ft | 133 kts | 344° |
| 2026-04-26 19:33 | 67.58627 | 24.92211 | 2596 ft | 137 kts | 346° |
| 2026-04-26 19:34 | 67.59564 | 24.91616 | 2387 ft | 139 kts | 346° |
| 2026-04-26 19:34 | 67.60488 | 24.91016 | 2234 ft | 136 kts | 346° |
| 2026-04-26 19:34 | 67.61395 | 24.90454 | 2158 ft | 132 kts | 345° |
| 2026-04-26 19:34 | 67.62285 | 24.89857 | 2106 ft | 132 kts | 345° |
| 2026-04-26 19:35 | 67.63189 | 24.89278 | 1962 ft | 136 kts | 345° |
| 2026-04-26 19:35 | 67.64100 | 24.88671 | 1864 ft | 134 kts | 345° |
| 2026-04-26 19:35 | 67.65016 | 24.88067 | 1678 ft | 137 kts | 345° |
| 2026-04-26 19:35 | 67.65966 | 24.87504 | 1458 ft | 143 kts | 346° |
| 2026-04-26 19:36 | 67.66945 | 24.86822 | 1209 ft | 149 kts | 342° |
| 2026-04-26 19:36 | 67.67285 | 24.86574 | 1133 ft | 150 kts | 343° |
| 2026-04-26 19:36 | 67.68999 | 24.85405 | 722 ft | 155 kts | 344° |
| 2026-04-26 19:36 | 67.69948 | 24.84789 | 634 ft | 94 kts | 346° |
| 2026-04-26 19:37 | 67.70123 | 24.84675 | 632 ft | 0 kts | 350° |
| 2026-04-26 19:37 | 67.70234 | 24.84608 | 637 ft | 29 kts | 346° |
| 2026-04-26 19:37 | 67.70365 | 24.84525 | 633 ft | 29 kts | 345° |
| 2026-04-26 19:37 | 67.70633 | 24.84350 | 634 ft | 32 kts | 347° |
| 2026-04-26 19:38 | 67.70707 | 24.84359 | 635 ft | 12 kts | 59° |
| 2026-04-26 19:38 | 67.70739 | 24.84627 | 637 ft | 20 kts | 78° |
| 2026-04-26 19:38 | 67.70659 | 24.84809 | 631 ft | 21 kts | 167° |
| 2026-04-26 19:38 | 67.70501 | 24.84897 | 631 ft | 26 kts | 166° |
| 2026-04-26 19:39 | 67.70310 | 24.85023 | 632 ft | 30 kts | 164° |
| 2026-04-26 19:39 | 67.70092 | 24.85153 | 634 ft | 32 kts | 164° |
| 2026-04-26 19:39 | 67.69944 | 24.85254 | 635 ft | 23 kts | 165° |
| 2026-04-26 19:39 | 67.69772 | 24.85359 | 636 ft | 28 kts | 167° |
| 2026-04-26 19:40 | 67.69582 | 24.85476 | 636 ft | 22 kts | 167° |
| 2026-04-26 19:40 | 67.69419 | 24.85572 | 637 ft | 26 kts | 167° |
| 2026-04-26 19:40 | 67.69374 | 24.85769 | 634 ft | 16 kts | 77° |
| 2026-04-26 19:40 | 67.69377 | 24.85806 | 633 ft | 0 kts | 77° |